sensor_id;sensor_type;location;lat;lon;timestamp;noise_LAeq;noise_LA_min;noise_LA_max;noise_LA01;noise_LA95
72028;Laerm;59781;52.090;5.030;2022-09-09T00:01:30;40.62;37.73;45.64;;
72028;Laerm;59781;52.090;5.030;2022-09-09T00:04:25;40.75;37.49;45.75;;
72028;Laerm;59781;52.090;5.030;2022-09-09T00:07:47;41.85;38.37;50.48;;
72028;Laerm;59781;52.090;5.030;2022-09-09T00:10:28;41.24;37.30;48.64;;
72028;Laerm;59781;52.090;5.030;2022-09-09T00:13:38;41.76;38.29;47.88;;
72028;Laerm;59781;52.090;5.030;2022-09-09T00:16:25;39.69;36.78;45.27;;
72028;Laerm;59781;52.090;5.030;2022-09-09T00:19:24;40.17;37.27;45.37;;
72028;Laerm;59781;52.090;5.030;2022-09-09T00:22:17;39.45;36.45;48.13;;
72028;Laerm;59781;52.090;5.030;2022-09-09T00:24:56;41.01;37.23;45.90;;
72028;Laerm;59781;52.090;5.030;2022-09-09T00:27:45;40.98;37.98;48.98;;
72028;Laerm;59781;52.090;5.030;2022-09-09T00:30:31;40.38;37.67;57.67;;
72028;Laerm;59781;52.090;5.030;2022-09-09T00:33:10;40.31;36.53;45.96;;
72028;Laerm;59781;52.090;5.030;2022-09-09T00:35:45;41.08;37.88;48.03;;
72028;Laerm;59781;52.090;5.030;2022-09-09T00:41:21;40.74;37.08;46.55;;
72028;Laerm;59781;52.090;5.030;2022-09-09T00:44:30;40.80;37.45;48.64;;
72028;Laerm;59781;52.090;5.030;2022-09-09T00:52:45;39.39;36.14;46.92;;
72028;Laerm;59781;52.090;5.030;2022-09-09T00:58:01;41.28;38.27;45.43;;
72028;Laerm;59781;52.090;5.030;2022-09-09T01:00:31;40.67;37.48;44.85;;
72028;Laerm;59781;52.090;5.030;2022-09-09T01:06:31;40.30;37.01;48.51;;
72028;Laerm;59781;52.090;5.030;2022-09-09T01:09:55;40.30;37.06;47.36;;
72028;Laerm;59781;52.090;5.030;2022-09-09T01:12:25;40.25;37.14;45.35;;
72028;Laerm;59781;52.090;5.030;2022-09-09T01:15:12;41.47;37.39;49.46;;
72028;Laerm;59781;52.090;5.030;2022-09-09T01:18:02;40.59;36.82;45.71;;
72028;Laerm;59781;52.090;5.030;2022-09-09T01:21:02;40.71;37.51;45.63;;
72028;Laerm;59781;52.090;5.030;2022-09-09T01:23:45;40.31;36.97;46.09;;
72028;Laerm;59781;52.090;5.030;2022-09-09T01:26:45;41.95;37.66;52.48;;
72028;Laerm;59781;52.090;5.030;2022-09-09T01:29:21;40.64;37.21;45.55;;
72028;Laerm;59781;52.090;5.030;2022-09-09T01:32:02;41.02;36.97;46.45;;
72028;Laerm;59781;52.090;5.030;2022-09-09T01:34:38;39.95;37.05;44.31;;
72028;Laerm;59781;52.090;5.030;2022-09-09T01:37:10;40.83;37.64;45.47;;
72028;Laerm;59781;52.090;5.030;2022-09-09T01:39:43;40.97;37.59;45.28;;
72028;Laerm;59781;52.090;5.030;2022-09-09T01:42:16;48.65;37.92;64.48;;
72028;Laerm;59781;52.090;5.030;2022-09-09T01:44:43;53.97;37.90;70.64;;
72028;Laerm;59781;52.090;5.030;2022-09-09T01:47:10;53.87;37.20;69.77;;
72028;Laerm;59781;52.090;5.030;2022-09-09T01:49:50;39.42;36.95;42.14;;
72028;Laerm;59781;52.090;5.030;2022-09-09T01:52:22;39.99;37.44;46.40;;
72028;Laerm;59781;52.090;5.030;2022-09-09T01:54:48;39.21;36.93;42.38;;
72028;Laerm;59781;52.090;5.030;2022-09-09T01:57:30;39.52;37.04;43.01;;
72028;Laerm;59781;52.090;5.030;2022-09-09T02:00:10;39.55;37.14;42.81;;
72028;Laerm;59781;52.090;5.030;2022-09-09T02:03:22;39.57;36.67;58.05;;
72028;Laerm;59781;52.090;5.030;2022-09-09T02:06:36;39.61;37.19;44.31;;
72028;Laerm;59781;52.090;5.030;2022-09-09T02:09:26;39.89;37.58;45.91;;
72028;Laerm;59781;52.090;5.030;2022-09-09T02:12:06;39.75;37.29;42.84;;
72028;Laerm;59781;52.090;5.030;2022-09-09T02:14:56;39.62;37.26;43.52;;
72028;Laerm;59781;52.090;5.030;2022-09-09T02:17:38;40.01;37.16;43.15;;
72028;Laerm;59781;52.090;5.030;2022-09-09T02:20:14;39.44;36.80;42.70;;
72028;Laerm;59781;52.090;5.030;2022-09-09T02:22:50;39.67;36.66;42.90;;
72028;Laerm;59781;52.090;5.030;2022-09-09T02:25:26;39.62;36.90;42.71;;
72028;Laerm;59781;52.090;5.030;2022-09-09T02:27:57;40.26;37.31;43.55;;
72028;Laerm;59781;52.090;5.030;2022-09-09T02:30:30;41.43;38.36;46.46;;
72028;Laerm;59781;52.090;5.030;2022-09-09T02:33:04;41.66;39.13;44.78;;
72028;Laerm;59781;52.090;5.030;2022-09-09T02:35:44;41.48;38.86;44.95;;
72028;Laerm;59781;52.090;5.030;2022-09-09T02:38:16;41.06;37.94;50.58;;
72028;Laerm;59781;52.090;5.030;2022-09-09T02:40:53;41.10;38.48;45.15;;
72028;Laerm;59781;52.090;5.030;2022-09-09T02:43:19;40.88;38.62;43.69;;
72028;Laerm;59781;52.090;5.030;2022-09-09T02:46:19;40.88;37.78;46.15;;
72028;Laerm;59781;52.090;5.030;2022-09-09T02:52:06;41.62;38.05;49.70;;
72028;Laerm;59781;52.090;5.030;2022-09-09T02:54:38;42.32;38.38;48.13;;
72028;Laerm;59781;52.090;5.030;2022-09-09T02:57:08;42.96;39.26;47.42;;
72028;Laerm;59781;52.090;5.030;2022-09-09T02:59:39;42.04;37.60;52.85;;
72028;Laerm;59781;52.090;5.030;2022-09-09T03:02:05;42.47;39.23;46.76;;
72028;Laerm;59781;52.090;5.030;2022-09-09T03:04:33;42.22;38.95;47.02;;
72028;Laerm;59781;52.090;5.030;2022-09-09T03:06:59;42.17;39.32;48.87;;
72028;Laerm;59781;52.090;5.030;2022-09-09T03:09:24;41.68;38.26;46.79;;
72028;Laerm;59781;52.090;5.030;2022-09-09T03:11:52;42.10;38.21;55.15;;
72028;Laerm;59781;52.090;5.030;2022-09-09T03:14:19;43.56;38.78;53.30;;
72028;Laerm;59781;52.090;5.030;2022-09-09T03:16:47;42.45;39.03;49.90;;
72028;Laerm;59781;52.090;5.030;2022-09-09T03:19:13;42.06;39.36;50.75;;
72028;Laerm;59781;52.090;5.030;2022-09-09T03:21:40;42.73;39.75;46.93;;
72028;Laerm;59781;52.090;5.030;2022-09-09T03:24:06;42.13;39.25;45.80;;
72028;Laerm;59781;52.090;5.030;2022-09-09T03:26:32;41.91;39.56;46.16;;
72028;Laerm;59781;52.090;5.030;2022-09-09T03:28:59;42.63;39.20;48.21;;
72028;Laerm;59781;52.090;5.030;2022-09-09T03:31:27;42.17;39.54;49.49;;
72028;Laerm;59781;52.090;5.030;2022-09-09T03:33:57;43.04;39.68;56.08;;
72028;Laerm;59781;52.090;5.030;2022-09-09T03:36:28;42.97;40.07;49.83;;
72028;Laerm;59781;52.090;5.030;2022-09-09T03:38:55;43.25;40.07;49.44;;
72028;Laerm;59781;52.090;5.030;2022-09-09T03:41:22;43.91;40.92;46.34;;
72028;Laerm;59781;52.090;5.030;2022-09-09T03:43:53;43.25;39.96;46.47;;
72028;Laerm;59781;52.090;5.030;2022-09-09T03:46:23;43.18;40.39;46.76;;
72028;Laerm;59781;52.090;5.030;2022-09-09T03:48:50;43.77;41.22;46.90;;
72028;Laerm;59781;52.090;5.030;2022-09-09T03:51:17;44.42;41.26;58.65;;
72028;Laerm;59781;52.090;5.030;2022-09-09T03:53:44;44.25;41.35;46.88;;
72028;Laerm;59781;52.090;5.030;2022-09-09T03:56:10;43.92;41.05;47.62;;
72028;Laerm;59781;52.090;5.030;2022-09-09T03:58:37;44.20;40.73;47.30;;
72028;Laerm;59781;52.090;5.030;2022-09-09T04:01:10;44.27;41.15;49.12;;
72028;Laerm;59781;52.090;5.030;2022-09-09T04:03:40;44.81;42.11;48.46;;
72028;Laerm;59781;52.090;5.030;2022-09-09T04:06:09;44.66;41.40;60.75;;
72028;Laerm;59781;52.090;5.030;2022-09-09T04:08:36;44.79;42.04;50.61;;
72028;Laerm;59781;52.090;5.030;2022-09-09T04:11:03;47.66;42.17;58.53;;
72028;Laerm;59781;52.090;5.030;2022-09-09T04:13:36;45.09;42.45;48.44;;
72028;Laerm;59781;52.090;5.030;2022-09-09T04:16:05;45.61;42.57;49.65;;
72028;Laerm;59781;52.090;5.030;2022-09-09T04:18:33;46.15;43.12;56.65;;
72028;Laerm;59781;52.090;5.030;2022-09-09T04:21:00;46.18;43.57;49.22;;
72028;Laerm;59781;52.090;5.030;2022-09-09T04:23:29;46.49;43.39;50.00;;
72028;Laerm;59781;52.090;5.030;2022-09-09T04:25:59;47.52;44.03;54.08;;
72028;Laerm;59781;52.090;5.030;2022-09-09T04:28:31;45.99;42.82;48.98;;
72028;Laerm;59781;52.090;5.030;2022-09-09T04:31:23;46.13;42.88;58.03;;
72028;Laerm;59781;52.090;5.030;2022-09-09T04:33:52;45.23;42.44;57.16;;
72028;Laerm;59781;52.090;5.030;2022-09-09T04:36:19;44.68;42.13;47.17;;
72028;Laerm;59781;52.090;5.030;2022-09-09T04:38:47;45.30;42.80;49.92;;
72028;Laerm;59781;52.090;5.030;2022-09-09T04:41:15;45.42;42.53;52.90;;
72028;Laerm;59781;52.090;5.030;2022-09-09T04:43:43;45.23;42.46;59.86;;
72028;Laerm;59781;52.090;5.030;2022-09-09T04:46:10;45.10;42.48;52.98;;
72028;Laerm;59781;52.090;5.030;2022-09-09T04:48:36;45.72;42.06;57.51;;
72028;Laerm;59781;52.090;5.030;2022-09-09T04:51:08;44.80;41.86;47.83;;
72028;Laerm;59781;52.090;5.030;2022-09-09T04:53:35;45.79;42.24;52.78;;
72028;Laerm;59781;52.090;5.030;2022-09-09T04:56:08;44.98;42.00;63.26;;
72028;Laerm;59781;52.090;5.030;2022-09-09T04:58:41;45.22;42.27;61.93;;
72028;Laerm;59781;52.090;5.030;2022-09-09T05:01:16;45.70;42.27;58.49;;
72028;Laerm;59781;52.090;5.030;2022-09-09T05:03:44;45.27;42.16;50.59;;
72028;Laerm;59781;52.090;5.030;2022-09-09T05:06:20;45.36;42.14;52.05;;
72028;Laerm;59781;52.090;5.030;2022-09-09T05:08:49;46.71;42.76;67.74;;
72028;Laerm;59781;52.090;5.030;2022-09-09T05:11:24;46.11;43.24;59.31;;
72028;Laerm;59781;52.090;5.030;2022-09-09T05:13:54;46.12;42.34;54.92;;
72028;Laerm;59781;52.090;5.030;2022-09-09T05:16:21;46.35;42.84;65.78;;
72028;Laerm;59781;52.090;5.030;2022-09-09T05:18:48;47.05;42.64;60.28;;
72028;Laerm;59781;52.090;5.030;2022-09-09T05:21:18;46.60;43.13;60.21;;
72028;Laerm;59781;52.090;5.030;2022-09-09T05:23:45;47.03;43.88;65.27;;
72028;Laerm;59781;52.090;5.030;2022-09-09T05:26:15;47.14;44.45;52.65;;
72028;Laerm;59781;52.090;5.030;2022-09-09T05:28:42;47.24;43.39;57.39;;
72028;Laerm;59781;52.090;5.030;2022-09-09T05:31:10;48.85;43.65;58.81;;
72028;Laerm;59781;52.090;5.030;2022-09-09T05:33:42;50.15;44.12;61.61;;
72028;Laerm;59781;52.090;5.030;2022-09-09T05:36:16;47.76;43.76;54.30;;
72028;Laerm;59781;52.090;5.030;2022-09-09T05:38:43;47.28;43.68;60.67;;
72028;Laerm;59781;52.090;5.030;2022-09-09T05:41:11;47.43;43.99;67.66;;
72028;Laerm;59781;52.090;5.030;2022-09-09T05:43:38;47.98;44.61;61.46;;
72028;Laerm;59781;52.090;5.030;2022-09-09T05:46:10;46.96;43.67;57.35;;
72028;Laerm;59781;52.090;5.030;2022-09-09T05:48:41;46.88;43.95;55.88;;
72028;Laerm;59781;52.090;5.030;2022-09-09T05:51:11;47.82;44.69;61.48;;
72028;Laerm;59781;52.090;5.030;2022-09-09T05:53:38;49.08;44.27;59.26;;
72028;Laerm;59781;52.090;5.030;2022-09-09T05:56:08;46.99;43.57;52.42;;
72028;Laerm;59781;52.090;5.030;2022-09-09T05:58:37;48.07;43.37;66.77;;
72028;Laerm;59781;52.090;5.030;2022-09-09T06:01:11;46.91;44.24;58.32;;
72028;Laerm;59781;52.090;5.030;2022-09-09T06:03:39;47.55;44.22;59.45;;
72028;Laerm;59781;52.090;5.030;2022-09-09T06:06:10;46.44;43.17;60.77;;
72028;Laerm;59781;52.090;5.030;2022-09-09T06:08:40;46.59;43.45;53.13;;
72028;Laerm;59781;52.090;5.030;2022-09-09T06:11:15;47.11;43.79;62.85;;
72028;Laerm;59781;52.090;5.030;2022-09-09T06:13:43;46.63;43.53;65.29;;
72028;Laerm;59781;52.090;5.030;2022-09-09T06:16:15;46.92;43.70;52.56;;
72028;Laerm;59781;52.090;5.030;2022-09-09T06:18:43;47.21;44.19;54.01;;
72028;Laerm;59781;52.090;5.030;2022-09-09T06:21:29;47.12;44.25;55.34;;
72028;Laerm;59781;52.090;5.030;2022-09-09T06:23:57;47.19;44.13;53.46;;
72028;Laerm;59781;52.090;5.030;2022-09-09T06:26:40;48.38;44.22;73.69;;
72028;Laerm;59781;52.090;5.030;2022-09-09T06:29:09;46.86;43.10;58.82;;
72028;Laerm;59781;52.090;5.030;2022-09-09T06:31:36;47.59;43.99;59.12;;
72028;Laerm;59781;52.090;5.030;2022-09-09T06:34:12;47.53;43.50;65.38;;
72028;Laerm;59781;52.090;5.030;2022-09-09T06:36:41;46.89;43.46;60.21;;
72028;Laerm;59781;52.090;5.030;2022-09-09T06:39:08;47.03;43.32;62.13;;
72028;Laerm;59781;52.090;5.030;2022-09-09T06:41:36;46.99;44.08;54.97;;
72028;Laerm;59781;52.090;5.030;2022-09-09T06:44:05;52.81;44.10;73.06;;
72028;Laerm;59781;52.090;5.030;2022-09-09T06:46:38;46.43;43.48;53.21;;
72028;Laerm;59781;52.090;5.030;2022-09-09T06:49:05;49.03;43.35;73.12;;
72028;Laerm;59781;52.090;5.030;2022-09-09T06:51:35;46.66;43.00;61.42;;
72028;Laerm;59781;52.090;5.030;2022-09-09T06:54:03;46.38;42.55;60.36;;
72028;Laerm;59781;52.090;5.030;2022-09-09T06:56:32;46.17;42.62;60.02;;
72028;Laerm;59781;52.090;5.030;2022-09-09T06:59:04;48.18;43.01;63.42;;
72028;Laerm;59781;52.090;5.030;2022-09-09T07:01:39;46.91;41.50;66.10;;
72028;Laerm;59781;52.090;5.030;2022-09-09T07:04:10;48.20;43.08;70.81;;
72028;Laerm;59781;52.090;5.030;2022-09-09T07:06:45;45.57;42.32;69.60;;
72028;Laerm;59781;52.090;5.030;2022-09-09T07:09:16;45.70;41.77;52.29;;
72028;Laerm;59781;52.090;5.030;2022-09-09T07:11:50;45.72;41.93;65.21;;
72028;Laerm;59781;52.090;5.030;2022-09-09T07:17:28;52.26;42.36;79.16;;
72028;Laerm;59781;52.090;5.030;2022-09-09T07:19:55;47.36;42.17;68.02;;
72028;Laerm;59781;52.090;5.030;2022-09-09T07:22:22;45.54;42.16;53.42;;
72028;Laerm;59781;52.090;5.030;2022-09-09T07:24:48;45.89;42.33;60.73;;
72028;Laerm;59781;52.090;5.030;2022-09-09T07:27:15;45.96;41.59;64.08;;
72028;Laerm;59781;52.090;5.030;2022-09-09T07:29:41;46.35;41.51;60.42;;
72028;Laerm;59781;52.090;5.030;2022-09-09T07:32:07;48.09;41.06;69.22;;
72028;Laerm;59781;52.090;5.030;2022-09-09T07:34:36;45.50;42.16;62.27;;
72028;Laerm;59781;52.090;5.030;2022-09-09T07:37:02;45.64;41.46;61.02;;
72028;Laerm;59781;52.090;5.030;2022-09-09T07:39:29;44.67;41.74;48.50;;
72028;Laerm;59781;52.090;5.030;2022-09-09T07:41:55;46.79;41.84;67.26;;
72028;Laerm;59781;52.090;5.030;2022-09-09T07:44:24;46.69;41.93;68.55;;
72028;Laerm;59781;52.090;5.030;2022-09-09T07:46:57;45.39;41.42;54.37;;
72028;Laerm;59781;52.090;5.030;2022-09-09T07:49:29;45.97;41.99;67.36;;
72028;Laerm;59781;52.090;5.030;2022-09-09T07:51:55;45.37;40.88;62.47;;
72028;Laerm;59781;52.090;5.030;2022-09-09T07:54:21;45.62;41.62;63.63;;
72028;Laerm;59781;52.090;5.030;2022-09-09T07:56:51;45.72;41.51;58.00;;
72028;Laerm;59781;52.090;5.030;2022-09-09T07:59:18;47.81;41.68;77.15;;
72028;Laerm;59781;52.090;5.030;2022-09-09T08:01:50;47.07;42.03;65.10;;
72028;Laerm;59781;52.090;5.030;2022-09-09T08:04:23;48.86;41.69;75.55;;
72028;Laerm;59781;52.090;5.030;2022-09-09T08:06:59;49.09;42.12;72.82;;
72028;Laerm;59781;52.090;5.030;2022-09-09T08:09:28;46.51;41.80;70.23;;
72028;Laerm;59781;52.090;5.030;2022-09-09T08:11:59;45.83;41.00;63.79;;
72028;Laerm;59781;52.090;5.030;2022-09-09T08:14:27;46.09;41.26;66.88;;
72028;Laerm;59781;52.090;5.030;2022-09-09T08:16:54;48.69;41.65;64.70;;
72028;Laerm;59781;52.090;5.030;2022-09-09T08:19:23;47.86;41.92;73.80;;
72028;Laerm;59781;52.090;5.030;2022-09-09T08:21:49;47.27;42.14;71.41;;
72028;Laerm;59781;52.090;5.030;2022-09-09T08:24:16;46.65;41.79;62.39;;
72028;Laerm;59781;52.090;5.030;2022-09-09T08:26:48;45.67;42.28;66.26;;
72028;Laerm;59781;52.090;5.030;2022-09-09T08:29:20;47.03;41.46;67.60;;
72028;Laerm;59781;52.090;5.030;2022-09-09T08:31:54;44.99;41.36;61.21;;
72028;Laerm;59781;52.090;5.030;2022-09-09T08:34:22;45.29;41.36;56.11;;
72028;Laerm;59781;52.090;5.030;2022-09-09T08:36:52;45.87;41.68;65.43;;
72028;Laerm;59781;52.090;5.030;2022-09-09T08:39:23;45.66;41.97;57.55;;
72028;Laerm;59781;52.090;5.030;2022-09-09T08:45:03;46.99;41.08;69.27;;
72028;Laerm;59781;52.090;5.030;2022-09-09T08:50:50;45.22;41.04;67.52;;
72028;Laerm;59781;52.090;5.030;2022-09-09T08:53:40;46.88;40.70;62.41;;
72028;Laerm;59781;52.090;5.030;2022-09-09T08:56:21;46.34;41.43;69.55;;
72028;Laerm;59781;52.090;5.030;2022-09-09T08:58:55;46.34;41.35;56.82;;
72028;Laerm;59781;52.090;5.030;2022-09-09T09:02:03;46.15;41.41;68.13;;
72028;Laerm;59781;52.090;5.030;2022-09-09T09:05:16;46.18;40.62;66.27;;
72028;Laerm;59781;52.090;5.030;2022-09-09T09:08:10;45.66;41.21;65.14;;
72028;Laerm;59781;52.090;5.030;2022-09-09T09:10:50;47.47;40.55;65.88;;
72028;Laerm;59781;52.090;5.030;2022-09-09T09:13:40;45.03;40.71;59.50;;
72028;Laerm;59781;52.090;5.030;2022-09-09T09:19:17;47.38;40.84;68.20;;
72028;Laerm;59781;52.090;5.030;2022-09-09T09:25:21;46.01;41.78;64.32;;
72028;Laerm;59781;52.090;5.030;2022-09-09T09:30:44;44.79;41.31;53.74;;
72028;Laerm;59781;52.090;5.030;2022-09-09T09:33:35;46.48;42.12;63.76;;
72028;Laerm;59781;52.090;5.030;2022-09-09T09:36:03;46.31;41.30;64.40;;
72028;Laerm;59781;52.090;5.030;2022-09-09T09:38:30;47.87;41.72;65.69;;
72028;Laerm;59781;52.090;5.030;2022-09-09T09:40:59;48.26;41.79;64.48;;
72028;Laerm;59781;52.090;5.030;2022-09-09T09:43:36;46.84;42.32;66.98;;
72028;Laerm;59781;52.090;5.030;2022-09-09T09:46:22;45.76;41.77;62.94;;
72028;Laerm;59781;52.090;5.030;2022-09-09T09:49:05;49.45;42.81;63.41;;
72028;Laerm;59781;52.090;5.030;2022-09-09T09:51:33;46.69;42.60;66.51;;
72028;Laerm;59781;52.090;5.030;2022-09-09T09:56:46;46.41;42.61;55.03;;
72028;Laerm;59781;52.090;5.030;2022-09-09T09:59:32;46.23;42.83;60.50;;
72028;Laerm;59781;52.090;5.030;2022-09-09T10:02:24;45.72;41.13;62.76;;
72028;Laerm;59781;52.090;5.030;2022-09-09T10:05:21;50.29;41.56;65.95;;
72028;Laerm;59781;52.090;5.030;2022-09-09T10:14:19;51.97;43.53;79.51;;
72028;Laerm;59781;52.090;5.030;2022-09-09T10:17:03;48.56;43.07;79.45;;
72028;Laerm;59781;52.090;5.030;2022-09-09T10:19:37;49.61;43.78;78.54;;
72028;Laerm;59781;52.090;5.030;2022-09-09T10:22:28;47.76;42.97;70.96;;
72028;Laerm;59781;52.090;5.030;2022-09-09T10:25:25;47.18;42.60;55.48;;
72028;Laerm;59781;52.090;5.030;2022-09-09T10:36:21;47.28;41.66;67.22;;
72028;Laerm;59781;52.090;5.030;2022-09-09T10:38:56;46.92;42.19;66.72;;
72028;Laerm;59781;52.090;5.030;2022-09-09T10:44:50;48.97;42.56;66.99;;
72028;Laerm;59781;52.090;5.030;2022-09-09T10:48:19;46.74;42.00;59.59;;
72028;Laerm;59781;52.090;5.030;2022-09-09T10:54:03;48.43;42.44;66.37;;
72028;Laerm;59781;52.090;5.030;2022-09-09T10:56:31;51.30;43.06;77.49;;
72028;Laerm;59781;52.090;5.030;2022-09-09T10:59:16;49.82;44.75;70.43;;
72028;Laerm;59781;52.090;5.030;2022-09-09T11:02:01;46.57;42.79;59.35;;
72028;Laerm;59781;52.090;5.030;2022-09-09T11:04:43;46.17;42.00;59.91;;
72028;Laerm;59781;52.090;5.030;2022-09-09T11:07:47;47.10;42.87;63.96;;
72028;Laerm;59781;52.090;5.030;2022-09-09T11:13:38;48.34;44.25;63.47;;
72028;Laerm;59781;52.090;5.030;2022-09-09T11:19:42;47.20;42.52;70.35;;
72028;Laerm;59781;52.090;5.030;2022-09-09T11:22:39;51.82;42.51;73.50;;
72028;Laerm;59781;52.090;5.030;2022-09-09T11:25:26;54.81;42.70;80.68;;
72028;Laerm;59781;52.090;5.030;2022-09-09T11:39:23;47.94;43.08;67.14;;
72028;Laerm;59781;52.090;5.030;2022-09-09T11:41:53;49.24;43.99;65.43;;
72028;Laerm;59781;52.090;5.030;2022-09-09T11:44:29;48.70;42.92;74.90;;
72028;Laerm;59781;52.090;5.030;2022-09-09T11:46:56;47.04;43.29;67.56;;
72028;Laerm;59781;52.090;5.030;2022-09-09T11:49:41;47.40;44.42;65.54;;
72028;Laerm;59781;52.090;5.030;2022-09-09T11:54:49;47.39;42.62;64.95;;
72028;Laerm;59781;52.090;5.030;2022-09-09T11:57:36;47.71;43.56;63.31;;
72028;Laerm;59781;52.090;5.030;2022-09-09T12:00:04;46.33;42.73;63.11;;
72028;Laerm;59781;52.090;5.030;2022-09-09T12:02:50;50.07;43.39;76.04;;
72028;Laerm;59781;52.090;5.030;2022-09-09T12:05:45;46.81;43.60;62.64;;
72028;Laerm;59781;52.090;5.030;2022-09-09T12:08:27;57.01;42.37;90.32;;
72028;Laerm;59781;52.090;5.030;2022-09-09T12:10:59;47.87;42.44;60.68;;
72028;Laerm;59781;52.090;5.030;2022-09-09T12:13:28;47.53;42.81;66.99;;
72028;Laerm;59781;52.090;5.030;2022-09-09T12:15:59;48.85;42.03;72.37;;
72028;Laerm;59781;52.090;5.030;2022-09-09T12:18:36;47.85;43.33;66.32;;
72028;Laerm;59781;52.090;5.030;2022-09-09T12:24:09;51.38;43.70;75.87;;
72028;Laerm;59781;52.090;5.030;2022-09-09T12:26:44;47.54;43.53;65.57;;
72028;Laerm;59781;52.090;5.030;2022-09-09T12:29:40;47.46;43.19;61.70;;
72028;Laerm;59781;52.090;5.030;2022-09-09T12:32:15;46.70;42.45;61.08;;
72028;Laerm;59781;52.090;5.030;2022-09-09T12:35:03;48.14;42.06;71.05;;
72028;Laerm;59781;52.090;5.030;2022-09-09T12:37:59;48.73;42.35;67.31;;
72028;Laerm;59781;52.090;5.030;2022-09-09T12:40:31;48.41;42.48;64.81;;
72028;Laerm;59781;52.090;5.030;2022-09-09T12:42:58;47.16;42.96;62.47;;
72028;Laerm;59781;52.090;5.030;2022-09-09T12:45:32;49.82;41.78;69.64;;
72028;Laerm;59781;52.090;5.030;2022-09-09T12:48:09;48.47;42.61;69.78;;
72028;Laerm;59781;52.090;5.030;2022-09-09T12:50:49;47.84;43.17;63.33;;
72028;Laerm;59781;52.090;5.030;2022-09-09T12:53:28;47.25;41.87;68.85;;
72028;Laerm;59781;52.090;5.030;2022-09-09T12:56:08;48.05;42.56;68.88;;
72028;Laerm;59781;52.090;5.030;2022-09-09T12:58:49;45.89;41.64;54.91;;
72028;Laerm;59781;52.090;5.030;2022-09-09T13:01:31;48.52;42.50;59.74;;
72028;Laerm;59781;52.090;5.030;2022-09-09T13:03:57;47.53;43.12;66.06;;
72028;Laerm;59781;52.090;5.030;2022-09-09T13:06:31;46.27;41.29;61.17;;
72028;Laerm;59781;52.090;5.030;2022-09-09T13:09:01;45.45;41.46;55.14;;
72028;Laerm;59781;52.090;5.030;2022-09-09T13:11:45;45.39;42.09;53.62;;
72028;Laerm;59781;52.090;5.030;2022-09-09T13:14:34;46.08;41.72;57.40;;
72028;Laerm;59781;52.090;5.030;2022-09-09T13:17:06;48.51;42.70;62.93;;
72028;Laerm;59781;52.090;5.030;2022-09-09T13:19:37;45.72;41.52;59.61;;
72028;Laerm;59781;52.090;5.030;2022-09-09T13:22:29;48.08;41.54;72.12;;
72028;Laerm;59781;52.090;5.030;2022-09-09T13:25:24;52.24;41.49;66.81;;
72028;Laerm;59781;52.090;5.030;2022-09-09T13:28:04;47.02;42.12;68.27;;
72028;Laerm;59781;52.090;5.030;2022-09-09T13:30:37;47.72;42.16;61.04;;
72028;Laerm;59781;52.090;5.030;2022-09-09T13:35:47;47.19;41.72;57.59;;
72028;Laerm;59781;52.090;5.030;2022-09-09T13:38:16;45.32;41.73;65.79;;
72028;Laerm;59781;52.090;5.030;2022-09-09T13:41:05;50.63;41.15;80.86;;
72028;Laerm;59781;52.090;5.030;2022-09-09T13:47:34;50.46;42.16;75.00;;
72028;Laerm;59781;52.090;5.030;2022-09-09T13:50:26;49.41;41.59;80.17;;
72028;Laerm;59781;52.090;5.030;2022-09-09T13:52:59;48.90;42.26;70.06;;
72028;Laerm;59781;52.090;5.030;2022-09-09T13:55:30;53.67;43.12;80.42;;
72028;Laerm;59781;52.090;5.030;2022-09-09T13:57:59;46.02;42.47;62.87;;
72028;Laerm;59781;52.090;5.030;2022-09-09T14:00:35;47.61;42.47;74.26;;
72028;Laerm;59781;52.090;5.030;2022-09-09T14:03:02;46.80;42.18;68.21;;
72028;Laerm;59781;52.090;5.030;2022-09-09T14:06:01;54.01;43.49;78.79;;
72028;Laerm;59781;52.090;5.030;2022-09-09T14:08:29;50.55;42.86;77.22;;
72028;Laerm;59781;52.090;5.030;2022-09-09T14:11:03;64.17;42.49;96.65;;
72028;Laerm;59781;52.090;5.030;2022-09-09T14:13:31;45.41;42.45;52.87;;
72028;Laerm;59781;52.090;5.030;2022-09-09T14:16:19;46.04;42.32;51.47;;
72028;Laerm;59781;52.090;5.030;2022-09-09T14:18:47;46.25;42.91;63.17;;
72028;Laerm;59781;52.090;5.030;2022-09-09T14:21:14;46.83;42.40;67.57;;
72028;Laerm;59781;52.090;5.030;2022-09-09T14:23:41;45.79;41.15;55.82;;
72028;Laerm;59781;52.090;5.030;2022-09-09T14:26:08;45.94;41.71;55.13;;
72028;Laerm;59781;52.090;5.030;2022-09-09T14:28:38;46.05;41.85;51.97;;
72028;Laerm;59781;52.090;5.030;2022-09-09T14:31:12;46.21;41.97;59.72;;
72028;Laerm;59781;52.090;5.030;2022-09-09T14:33:47;47.53;42.69;60.13;;
72028;Laerm;59781;52.090;5.030;2022-09-09T14:36:13;45.72;41.10;53.40;;
72028;Laerm;59781;52.090;5.030;2022-09-09T14:38:42;46.37;42.17;52.05;;
72028;Laerm;59781;52.090;5.030;2022-09-09T14:41:12;46.87;43.03;65.79;;
72028;Laerm;59781;52.090;5.030;2022-09-09T14:43:39;46.48;42.03;62.91;;
72028;Laerm;59781;52.090;5.030;2022-09-09T14:46:12;45.35;41.63;52.68;;
72028;Laerm;59781;52.090;5.030;2022-09-09T14:48:38;49.81;42.45;77.30;;
72028;Laerm;59781;52.090;5.030;2022-09-09T14:51:12;58.11;46.63;82.85;;
72028;Laerm;59781;52.090;5.030;2022-09-09T14:54:06;55.60;43.73;81.92;;
72028;Laerm;59781;52.090;5.030;2022-09-09T14:57:02;50.94;43.10;73.93;;
72028;Laerm;59781;52.090;5.030;2022-09-09T15:00:11;49.85;43.64;74.79;;
72028;Laerm;59781;52.090;5.030;2022-09-09T15:03:37;49.92;41.32;74.85;;
72028;Laerm;59781;52.090;5.030;2022-09-09T15:06:11;45.65;41.23;68.36;;
72028;Laerm;59781;52.090;5.030;2022-09-09T15:09:00;44.50;41.40;53.56;;
72028;Laerm;59781;52.090;5.030;2022-09-09T15:11:34;44.37;41.39;58.10;;
72028;Laerm;59781;52.090;5.030;2022-09-09T15:14:07;43.61;40.23;60.67;;
72028;Laerm;59781;52.090;5.030;2022-09-09T15:16:34;51.82;40.64;69.98;;
72028;Laerm;59781;52.090;5.030;2022-09-09T15:19:50;44.99;41.04;65.16;;
72028;Laerm;59781;52.090;5.030;2022-09-09T15:22:16;44.32;40.46;65.01;;
72028;Laerm;59781;52.090;5.030;2022-09-09T15:24:42;43.05;39.42;47.15;;
72028;Laerm;59781;52.090;5.030;2022-09-09T15:27:09;59.84;42.22;76.83;;
72028;Laerm;59781;52.090;5.030;2022-09-09T15:29:39;43.58;39.86;49.70;;
72028;Laerm;59781;52.090;5.030;2022-09-09T15:32:06;44.75;41.98;49.71;;
72028;Laerm;59781;52.090;5.030;2022-09-09T15:34:33;44.45;41.41;53.42;;
72028;Laerm;59781;52.090;5.030;2022-09-09T15:37:06;45.17;40.99;57.33;;
72028;Laerm;59781;52.090;5.030;2022-09-09T15:39:32;46.73;40.94;61.67;;
72028;Laerm;59781;52.090;5.030;2022-09-09T15:42:19;48.04;41.83;58.90;;
72028;Laerm;59781;52.090;5.030;2022-09-09T15:44:46;46.99;41.71;65.74;;
72028;Laerm;59781;52.090;5.030;2022-09-09T15:47:14;48.20;41.68;65.52;;
72028;Laerm;59781;52.090;5.030;2022-09-09T15:49:40;46.05;41.02;62.40;;
72028;Laerm;59781;52.090;5.030;2022-09-09T15:52:06;45.57;41.75;57.39;;
72028;Laerm;59781;52.090;5.030;2022-09-09T15:54:35;45.56;41.05;59.45;;
72028;Laerm;59781;52.090;5.030;2022-09-09T15:57:12;45.15;40.65;52.09;;
72028;Laerm;59781;52.090;5.030;2022-09-09T15:59:38;46.04;41.45;60.62;;
72028;Laerm;59781;52.090;5.030;2022-09-09T16:02:04;46.06;42.08;59.73;;